createdAt,value
2019-04-22T00:00:46.530Z,7.53
2019-04-22T00:03:16.774Z,8.65
2019-04-22T00:06:06.574Z,10.58
2019-04-22T00:08:46.304Z,7.85
2019-04-22T00:11:11.026Z,5.35
2019-04-22T00:13:46.903Z,8.63
2019-04-22T00:16:07.150Z,10.78
2019-04-22T00:18:54.834Z,8.15
2019-04-22T00:21:13.006Z,5.53
2019-04-22T00:23:49.695Z,10.10
2019-04-22T00:26:16.403Z,10.78
2019-04-22T00:28:50.004Z,8.20
2019-04-22T00:31:15.552Z,7.65
2019-04-22T00:33:48.086Z,6.47
2019-04-22T00:36:17.798Z,9.95
2019-04-22T00:38:51.641Z,8.48
2019-04-22T00:41:23.215Z,7.37
2019-04-22T00:43:58.157Z,7.20
2019-04-22T00:46:25.266Z,4.60
2019-04-22T00:49:18.983Z,8.98
2019-04-22T00:51:47.485Z,5.75
2019-04-22T00:53:54.624Z,6.75
2019-04-22T00:56:24.705Z,7.28
2019-04-22T00:58:50.221Z,7.28
2019-04-22T01:01:26.245Z,6.60
2019-04-22T01:06:25.838Z,6.97
2019-04-22T01:09:02.620Z,6.12
2019-04-22T01:11:37.845Z,8.25
2019-04-22T01:13:55.912Z,7.72
2019-04-22T01:16:32.432Z,7.33
2019-04-22T01:19:00.038Z,8.45
2019-04-22T01:21:36.991Z,7.25
2019-04-22T01:23:59.880Z,7.62
2019-04-22T01:26:25.333Z,5.80
2019-04-22T01:28:53.579Z,5.53
2019-04-22T01:31:17.896Z,4.80
2019-04-22T01:33:48.324Z,6.22
2019-04-22T01:36:33.530Z,7.67
2019-04-22T01:39:02.379Z,4.37
2019-04-22T01:41:48.884Z,5.78
2019-04-22T01:44:31.434Z,6.00
2019-04-22T01:46:47.771Z,6.25
2019-04-22T01:49:14.683Z,7.67
2019-04-22T01:51:54.289Z,7.60
2019-04-22T01:56:47.085Z,8.18
2019-04-22T01:59:05.112Z,7.00
2019-04-22T02:04:23.229Z,5.30
2019-04-22T02:06:48.280Z,7.67
2019-04-22T02:09:24.494Z,5.30
2019-04-22T02:14:20.295Z,9.00
2019-04-22T02:16:50.315Z,5.78
2019-04-22T02:19:26.770Z,5.72
2019-04-22T02:21:48.803Z,5.80
2019-04-22T02:24:26.538Z,7.72
2019-04-22T02:29:27.188Z,4.83
2019-04-22T02:32:04.072Z,6.47
2019-04-22T02:36:56.349Z,8.53
2019-04-22T02:39:24.585Z,6.75
2019-04-22T02:41:54.980Z,4.65
2019-04-22T02:44:43.243Z,6.42
2019-04-22T02:47:36.498Z,6.70
2019-04-22T02:49:29.222Z,9.50
2019-04-22T02:52:06.847Z,7.08
2019-04-22T02:54:41.839Z,5.28
2019-04-22T02:57:03.722Z,8.78
2019-04-22T02:59:32.561Z,10.93
2019-04-22T03:02:19.034Z,7.53
2019-04-22T03:04:31.890Z,6.20
2019-04-22T03:06:55.637Z,5.87
2019-04-22T03:09:35.751Z,6.70
2019-04-22T03:12:11.306Z,8.05
2019-04-22T03:14:38.145Z,6.85
2019-04-22T03:17:11.237Z,6.85
2019-04-22T03:22:08.220Z,5.78
2019-04-22T03:27:02.954Z,5.95
2019-04-22T03:37:45.579Z,5.65
2019-04-22T03:42:45.679Z,6.65
2019-04-22T03:47:43.595Z,12.82
2019-04-22T03:50:20.690Z,8.75
2019-04-22T03:52:44.579Z,6.55
2019-04-22T03:55:09.223Z,6.92
2019-04-22T03:57:55.937Z,8.08
2019-04-22T04:00:17.952Z,6.35
2019-04-22T04:02:47.001Z,13.35
2019-04-22T04:05:29.550Z,10.75
2019-04-22T04:10:35.426Z,9.90
2019-04-22T04:13:02.872Z,11.12
2019-04-22T04:18:05.942Z,9.30
2019-04-22T04:25:32.112Z,9.65
2019-04-22T04:30:30.133Z,10.15
2019-04-22T04:32:54.722Z,9.83
2019-04-22T04:35:44.336Z,8.00
2019-04-22T04:40:31.172Z,10.88
2019-04-22T04:42:53.372Z,10.03
2019-04-22T04:48:01.136Z,10.53
2019-04-22T04:50:18.340Z,10.25
2019-04-22T04:58:09.983Z,12.15
2019-04-22T05:05:29.308Z,14.10
2019-04-22T05:08:19.811Z,11.22
2019-04-22T05:10:41.178Z,12.65
2019-04-22T05:13:07.155Z,13.22
2019-04-22T05:15:29.738Z,10.80
2019-04-22T05:18:05.806Z,13.55
2019-04-22T05:20:44.801Z,12.63
2019-04-22T05:22:51.613Z,11.95
2019-04-22T05:25:24.909Z,12.05
2019-04-22T05:28:11.870Z,13.83
2019-04-22T05:30:26.674Z,12.93
2019-04-22T05:32:59.229Z,14.15
2019-04-22T05:35:32.230Z,15.03
2019-04-22T05:38:06.536Z,12.03
2019-04-22T05:40:45.787Z,16.00
2019-04-22T05:43:00.174Z,13.65
2019-04-22T05:45:33.078Z,14.23
2019-04-22T05:48:01.307Z,15.98
2019-04-22T05:50:27.143Z,16.52
2019-04-22T05:53:00.784Z,14.07
2019-04-22T05:55:35.989Z,14.85
2019-04-22T06:01:07.196Z,19.60
2019-04-22T06:03:20.979Z,17.57
2019-04-22T06:05:41.730Z,17.07
2019-04-22T06:08:13.347Z,12.43
2019-04-22T06:10:45.849Z,15.43
2019-04-22T06:15:37.633Z,14.43
2019-04-22T06:18:22.737Z,14.95
2019-04-22T06:20:55.817Z,15.83
2019-04-22T06:23:28.447Z,16.42
2019-04-22T06:26:07.887Z,12.90
2019-04-22T06:28:31.042Z,16.10
2019-04-22T06:30:57.517Z,13.58
2019-04-22T06:35:56.353Z,17.73
2019-04-22T06:40:55.388Z,14.55
2019-04-22T06:43:24.507Z,15.72
2019-04-22T06:45:57.707Z,17.42
2019-04-22T06:48:23.732Z,13.32
2019-04-22T06:50:52.800Z,13.35
2019-04-22T06:53:31.148Z,14.60
2019-04-22T06:56:12.594Z,18.00
2019-04-22T06:58:33.606Z,19.37
2019-04-22T07:01:19.615Z,12.93
2019-04-22T07:03:44.175Z,15.88
2019-04-22T07:05:59.643Z,18.90
2019-04-22T07:09:00.804Z,14.70
2019-04-22T07:10:54.860Z,18.77
2019-04-22T07:16:00.384Z,25.32
2019-04-22T07:21:01.425Z,14.25
2019-04-22T07:23:37.516Z,13.05
2019-04-22T07:26:04.379Z,12.80
2019-04-22T07:28:29.991Z,11.88
2019-04-22T07:31:03.890Z,16.27
2019-04-22T07:33:37.916Z,13.30
2019-04-22T07:38:29.828Z,14.68
2019-04-22T07:41:05.643Z,12.20
2019-04-22T07:43:51.664Z,13.43
2019-04-22T07:46:09.579Z,12.30
2019-04-22T07:51:07.490Z,16.00
2019-04-22T07:53:33.848Z,10.85
2019-04-22T07:56:11.904Z,16.80
2019-04-22T07:58:43.322Z,11.85
2019-04-22T08:01:15.370Z,17.30
2019-04-22T08:03:53.381Z,20.88
2019-04-22T08:08:45.574Z,10.23
2019-04-22T08:11:30.103Z,11.40
2019-04-22T08:13:43.889Z,17.82
2019-04-22T08:16:16.835Z,15.58
2019-04-22T08:18:46.011Z,13.13
2019-04-22T08:21:09.468Z,16.48
2019-04-22T08:23:55.445Z,10.13
2019-04-22T08:26:25.127Z,12.35
2019-04-22T08:28:55.801Z,15.90
2019-04-22T08:31:20.384Z,13.98
2019-04-22T08:33:46.634Z,14.03
2019-04-22T08:38:55.974Z,11.18
2019-04-22T08:43:57.615Z,12.75
2019-04-22T08:46:36.499Z,14.20
2019-04-22T08:49:05.861Z,11.65
2019-04-22T08:51:25.066Z,10.90
2019-04-22T08:53:59.813Z,11.35
2019-04-22T08:56:33.675Z,10.50
2019-04-22T08:59:02.680Z,9.20
2019-04-22T09:01:28.310Z,9.08
2019-04-22T09:04:03.760Z,10.93
2019-04-22T09:06:48.004Z,11.65
2019-04-22T09:09:04.223Z,11.50
2019-04-22T09:11:35.614Z,14.70
2019-04-22T09:14:03.798Z,10.85
2019-04-22T09:24:04.963Z,9.80
2019-04-22T09:26:36.108Z,12.18
2019-04-22T09:29:06.480Z,13.88
2019-04-22T09:31:35.880Z,14.60
2019-04-22T09:34:06.800Z,10.88
2019-04-22T09:39:12.308Z,14.13
2019-04-22T09:41:42.993Z,12.00
2019-04-22T09:44:26.261Z,11.95
2019-04-22T09:46:44.075Z,9.50
2019-04-22T09:49:15.504Z,10.23
2019-04-22T09:51:36.944Z,11.88
2019-04-22T09:54:20.152Z,10.15
2019-04-22T09:56:43.770Z,10.43
2019-04-22T09:59:10.887Z,9.78
2019-04-22T10:01:47.363Z,9.93
2019-04-22T10:04:25.388Z,10.93
2019-04-22T10:06:54.457Z,11.20
2019-04-22T10:11:57.734Z,12.05
2019-04-22T10:19:21.504Z,11.63
2019-04-22T10:21:50.147Z,10.98
2019-04-22T10:24:13.513Z,12.58
2019-04-22T10:26:43.879Z,13.75
2019-04-22T10:29:18.253Z,12.90
2019-04-22T10:31:49.484Z,11.65
2019-04-22T10:34:09.299Z,11.12
2019-04-22T10:36:25.586Z,12.23
2019-04-22T10:38:54.809Z,13.13
2019-04-22T10:41:23.852Z,17.40
2019-04-22T10:43:52.978Z,13.15
2019-04-22T10:46:22.178Z,11.95
2019-04-22T10:48:52.648Z,14.23
2019-04-22T10:51:22.344Z,15.83
2019-04-22T10:53:51.326Z,12.90
2019-04-22T10:56:20.956Z,13.75
2019-04-22T10:58:50.801Z,12.03
2019-04-22T11:01:21.096Z,13.35
2019-04-22T11:03:51.120Z,14.60
2019-04-22T11:06:21.333Z,13.40
2019-04-22T11:08:56.196Z,12.90
2019-04-22T11:11:33.636Z,15.93
2019-04-22T11:13:51.960Z,12.82
2019-04-22T11:16:21.523Z,14.35
2019-04-22T11:18:51.719Z,16.45
2019-04-22T11:21:20.602Z,19.25
2019-04-22T11:23:50.409Z,14.60
2019-04-22T11:26:19.880Z,14.80
2019-04-22T11:28:49.663Z,12.13
2019-04-22T11:31:18.815Z,13.15
2019-04-22T11:33:48.390Z,13.68
2019-04-22T11:36:17.704Z,15.70
2019-04-22T11:38:53.010Z,12.45
2019-04-22T11:41:17.398Z,11.78
2019-04-22T11:43:47.357Z,10.23
2019-04-22T11:46:17.628Z,13.58
2019-04-22T11:48:47.731Z,13.93
2019-04-22T11:51:18.023Z,12.13
2019-04-22T11:53:47.355Z,13.55
2019-04-22T11:56:16.832Z,12.63
2019-04-22T11:58:46.941Z,14.78
2019-04-22T12:01:16.890Z,14.63
2019-04-22T12:03:46.341Z,12.05
2019-04-22T12:06:15.812Z,14.13
2019-04-22T12:08:45.874Z,14.58
2019-04-22T12:11:16.665Z,12.93
2019-04-22T12:13:46.289Z,19.05
2019-04-22T12:16:15.425Z,14.83
2019-04-22T12:18:47.118Z,12.10
2019-04-22T12:21:17.127Z,15.08
2019-04-22T12:23:47.240Z,15.72
2019-04-22T12:26:19.204Z,12.60
2019-04-22T12:28:48.850Z,12.98
2019-04-22T12:31:17.857Z,11.08
2019-04-22T12:33:47.637Z,11.50
2019-04-22T12:36:18.138Z,13.80
2019-04-22T12:38:47.599Z,14.05
2019-04-22T12:41:17.930Z,13.90
2019-04-22T12:43:47.513Z,12.90
2019-04-22T12:46:18.353Z,14.68
2019-04-22T12:48:47.176Z,15.48
2019-04-22T12:51:15.980Z,12.25
2019-04-22T12:53:46.249Z,15.50
2019-04-22T12:56:15.464Z,9.88
2019-04-22T12:58:45.788Z,13.05
2019-04-22T13:01:15.130Z,14.20
2019-04-22T13:03:44.664Z,12.82
2019-04-22T13:06:14.251Z,10.38
2019-04-22T13:08:43.567Z,13.30
2019-04-22T13:11:16.581Z,12.40
2019-04-22T13:13:43.039Z,12.60
2019-04-22T13:16:13.363Z,12.50
2019-04-22T13:18:50.259Z,11.85
2019-04-22T13:21:14.879Z,14.60
2019-04-22T13:23:44.516Z,16.10
2019-04-22T13:26:14.962Z,11.93
2019-04-22T13:28:45.103Z,11.55
2019-04-22T13:31:14.160Z,13.78
2019-04-22T13:33:43.172Z,15.38
2019-04-22T13:36:12.073Z,13.55
2019-04-22T13:38:42.846Z,13.75
2019-04-22T13:41:26.762Z,14.35
2019-04-22T13:43:42.916Z,19.67
2019-04-22T13:46:12.428Z,12.35
2019-04-22T13:49:11.158Z,13.53
2019-04-22T13:54:37.135Z,12.68
2019-04-22T13:56:31.474Z,13.78
2019-04-22T13:58:57.702Z,14.35
2019-04-22T14:01:16.542Z,11.95
2019-04-22T14:06:29.005Z,12.05
2019-04-22T14:08:59.069Z,13.87
2019-04-22T14:11:39.037Z,19.60
2019-04-22T14:13:58.832Z,12.85
2019-04-22T14:16:28.999Z,12.93
2019-04-22T14:18:58.221Z,15.93
2019-04-22T14:21:27.427Z,26.00
2019-04-22T14:23:56.444Z,17.75
2019-04-22T14:26:27.093Z,21.50
2019-04-22T14:28:56.008Z,13.35
2019-04-22T14:31:26.530Z,12.20
2019-04-22T14:33:59.776Z,12.53
2019-04-22T14:36:27.476Z,16.62
2019-04-22T14:38:57.788Z,23.65
2019-04-22T14:41:42.919Z,11.23
2019-04-22T14:45:00.771Z,12.70
2019-04-22T14:46:56.740Z,14.10
2019-04-22T14:49:26.204Z,15.45
2019-04-22T14:51:51.549Z,10.82
2019-04-22T14:54:16.906Z,14.45
2019-04-22T14:56:30.522Z,14.60
2019-04-22T14:59:00.811Z,14.15
2019-04-22T15:01:30.749Z,17.17
2019-04-22T15:04:00.832Z,18.85
2019-04-22T15:06:31.532Z,12.80
2019-04-22T15:09:01.669Z,15.50
2019-04-22T15:11:43.705Z,14.55
2019-04-22T15:14:01.396Z,14.58
2019-04-22T15:16:36.375Z,14.20
2019-04-22T15:19:07.632Z,13.05
2019-04-22T15:24:25.280Z,17.67
2019-04-22T15:26:56.495Z,12.95
2019-04-22T15:29:25.530Z,12.25
2019-04-22T15:31:55.662Z,13.85
2019-04-22T15:34:25.064Z,12.55
2019-04-22T15:36:54.215Z,13.32
2019-04-22T15:39:23.245Z,12.70
2019-04-22T15:42:00.351Z,15.60
2019-04-22T15:44:23.975Z,13.90
2019-04-22T15:46:53.274Z,11.90
2019-04-22T15:49:22.481Z,13.68
2019-04-22T15:51:53.242Z,11.63
2019-04-22T15:54:23.498Z,12.40
2019-04-22T15:56:52.719Z,13.38
2019-04-22T15:59:43.451Z,11.75
2019-04-22T16:01:53.157Z,12.23
2019-04-22T16:04:23.067Z,13.55
2019-04-22T16:06:52.771Z,12.28
2019-04-22T16:09:22.768Z,13.75
2019-04-22T16:11:51.924Z,13.38
2019-04-22T16:14:23.931Z,21.02
2019-04-22T16:16:52.497Z,13.22
2019-04-22T16:19:22.947Z,14.70
2019-04-22T16:22:03.713Z,13.88
2019-04-22T16:24:45.871Z,15.08
2019-04-22T16:27:16.713Z,11.38
2019-04-22T16:29:45.592Z,13.50
2019-04-22T16:32:15.650Z,15.15
2019-04-22T16:34:45.707Z,16.75
2019-04-22T16:37:14.801Z,13.70
2019-04-22T16:39:46.739Z,15.68
2019-04-22T16:42:25.958Z,12.95
2019-04-22T16:44:47.396Z,13.03
2019-04-22T16:47:15.724Z,18.32
2019-04-22T16:49:45.669Z,12.55
2019-04-22T16:52:16.142Z,12.18
2019-04-22T16:54:46.511Z,14.98
2019-04-22T16:57:15.816Z,17.03
2019-04-22T16:59:44.833Z,12.65
2019-04-22T17:02:26.209Z,16.02
2019-04-22T17:04:59.879Z,15.30
2019-04-22T17:07:29.893Z,16.65
2019-04-22T17:09:59.788Z,17.92
2019-04-22T17:12:41.898Z,14.85
2019-04-22T17:15:05.720Z,19.17
2019-04-22T17:17:30.798Z,19.25
2019-04-22T17:19:59.886Z,13.55
2019-04-22T17:22:29.515Z,20.68
2019-04-22T17:25:00.128Z,15.60
2019-04-22T17:27:31.384Z,15.58
2019-04-22T17:29:59.706Z,19.30
2019-04-22T17:32:28.898Z,16.30
2019-04-22T17:34:59.246Z,21.82
2019-04-22T17:37:32.057Z,18.42
2019-04-22T17:40:14.657Z,23.50
2019-04-22T17:42:53.302Z,33.55
2019-04-22T17:45:31.752Z,20.57
2019-04-22T17:48:12.852Z,21.95
2019-04-22T17:50:57.896Z,21.27
2019-04-22T17:53:24.894Z,26.70
2019-04-22T17:55:49.225Z,21.93
2019-04-22T17:58:21.054Z,19.45
2019-04-22T18:00:44.502Z,24.20
2019-04-22T18:03:08.752Z,21.93
2019-04-22T18:05:34.747Z,26.68
2019-04-22T18:08:21.784Z,22.20
2019-04-22T18:10:51.020Z,26.17
2019-04-22T18:13:25.216Z,23.05
2019-04-22T18:15:54.915Z,27.25
2019-04-22T18:18:24.464Z,29.92
2019-04-22T18:20:47.519Z,33.30
2019-04-22T18:23:09.642Z,28.35
2019-04-22T18:25:53.438Z,26.27
2019-04-22T18:28:25.630Z,25.08
2019-04-22T18:30:52.510Z,25.50
2019-04-22T18:33:24.264Z,28.55
2019-04-22T18:35:58.386Z,33.65
2019-04-22T18:38:32.466Z,28.27
2019-04-22T18:40:55.592Z,22.98
2019-04-22T18:43:28.987Z,28.32
2019-04-22T18:46:00.276Z,33.75
2019-04-22T18:48:25.524Z,28.90
2019-04-22T18:51:06.576Z,37.30
2019-04-22T18:53:54.104Z,36.05
2019-04-22T18:56:25.410Z,35.10
2019-04-22T18:58:47.505Z,38.20
2019-04-22T19:01:08.179Z,36.95
2019-04-22T19:03:49.774Z,36.28
2019-04-22T19:06:36.859Z,43.30
2019-04-22T19:09:06.452Z,44.60
2019-04-22T19:11:27.009Z,44.23
2019-04-22T19:16:36.148Z,45.60
2019-04-22T19:19:20.517Z,37.67
2019-04-22T19:21:35.490Z,39.58
2019-04-22T19:23:59.756Z,53.05
2019-04-22T19:26:44.377Z,45.05
2019-04-22T19:29:03.782Z,51.25
2019-04-22T19:31:37.346Z,47.43
2019-04-22T19:34:04.585Z,47.00
2019-04-22T19:36:42.232Z,43.83
2019-04-22T19:39:04.404Z,57.05
2019-04-22T19:41:57.977Z,41.23
2019-04-22T19:44:09.569Z,55.08
2019-04-22T19:46:34.581Z,64.17
2019-04-22T19:49:10.314Z,47.38
2019-04-22T19:51:47.650Z,49.40
2019-04-22T19:54:07.654Z,61.45
2019-04-22T19:56:35.699Z,53.58
2019-04-22T19:59:12.135Z,60.88
2019-04-22T20:01:49.818Z,43.40
2019-04-22T20:04:34.650Z,54.73
2019-04-22T20:07:07.357Z,40.15
2019-04-22T20:09:41.917Z,40.78
2019-04-22T20:12:04.384Z,38.38
2019-04-22T20:14:41.268Z,39.95
2019-04-22T20:17:02.568Z,44.08
2019-04-22T20:19:45.383Z,42.50
2019-04-22T20:22:11.461Z,52.90
2019-04-22T20:24:26.529Z,40.58
2019-04-22T20:27:16.383Z,115.40
2019-04-22T20:29:41.552Z,105.03
2019-04-22T20:32:11.568Z,77.08
2019-04-22T20:34:44.593Z,44.77
2019-04-22T20:37:16.577Z,47.58
2019-04-22T20:39:48.215Z,50.28
2019-04-22T20:44:46.129Z,49.25
2019-04-22T20:47:10.172Z,46.83
2019-04-22T20:49:47.148Z,41.83
2019-04-22T20:54:44.593Z,51.05
2019-04-22T20:57:15.506Z,52.87
2019-04-22T20:59:44.291Z,39.38
2019-04-22T21:02:13.510Z,51.18
2019-04-22T21:04:38.328Z,45.28
2019-04-22T21:07:15.126Z,39.70
2019-04-22T21:09:49.011Z,36.03
2019-04-22T21:12:14.924Z,34.33
2019-04-22T21:14:57.319Z,37.15
2019-04-22T21:17:29.070Z,34.18
2019-04-22T21:20:00.758Z,37.25
2019-04-22T21:22:22.766Z,50.03
2019-04-22T21:24:48.400Z,152.78
2019-04-22T21:27:45.508Z,231.95
2019-04-22T21:29:52.057Z,242.90
2019-04-22T21:32:31.293Z,253.30
2019-04-22T21:35:19.834Z,104.58
2019-04-22T21:37:53.084Z,71.25
2019-04-22T21:39:57.948Z,49.70
2019-04-22T21:42:39.977Z,46.83
2019-04-22T21:44:58.617Z,40.52
2019-04-22T21:47:46.187Z,37.20
2019-04-22T21:50:21.411Z,35.17
2019-04-22T21:52:33.242Z,35.75
2019-04-22T21:55:10.304Z,63.13
2019-04-22T21:57:57.172Z,62.10
2019-04-22T22:00:31.321Z,41.02
2019-04-22T22:02:59.212Z,49.25
2019-04-22T22:05:19.029Z,44.50
2019-04-22T22:07:40.363Z,43.95
2019-04-22T22:10:27.099Z,39.45
2019-04-22T22:13:00.691Z,45.78
2019-04-22T22:15:30.323Z,36.65
2019-04-22T22:17:55.754Z,40.00
2019-04-22T22:20:34.066Z,32.88
2019-04-22T22:23:09.181Z,36.85
2019-04-22T22:25:30.193Z,38.53
2019-04-22T22:28:01.161Z,54.98
2019-04-22T22:30:48.292Z,38.33
2019-04-22T22:33:05.834Z,39.40
2019-04-22T22:35:36.047Z,36.20
2019-04-22T22:38:06.721Z,37.55
2019-04-22T22:40:21.068Z,37.13
2019-04-22T22:42:49.894Z,43.05
2019-04-22T22:45:28.085Z,75.20
2019-04-22T22:48:13.373Z,101.07
2019-04-22T22:50:37.498Z,71.82
2019-04-22T22:55:39.873Z,57.65
2019-04-22T22:58:13.151Z,39.63
2019-04-22T23:00:42.805Z,36.95
2019-04-22T23:05:45.357Z,32.50
2019-04-22T23:10:52.915Z,41.10
2019-04-22T23:13:20.505Z,39.65
2019-04-22T23:15:38.721Z,38.10
2019-04-22T23:17:54.135Z,35.25
2019-04-22T23:20:27.495Z,36.93
2019-04-22T23:23:17.270Z,37.40
2019-04-22T23:25:54.783Z,34.48
2019-04-22T23:28:24.493Z,33.15
2019-04-22T23:31:04.195Z,40.03
2019-04-22T23:33:57.280Z,31.15
2019-04-22T23:36:47.555Z,32.55
2019-04-22T23:39:17.110Z,33.92
2019-04-22T23:41:51.209Z,30.15
2019-04-22T23:44:17.777Z,35.43
2019-04-22T23:47:01.588Z,32.03
2019-04-22T23:49:29.829Z,33.13
2019-04-22T23:52:10.151Z,28.95
2019-04-22T23:54:44.935Z,38.88
2019-04-22T23:57:09.018Z,36.45
